Mobile, AL

4:38 AM CST on December 07, 2016 (GMT -0600)
Downtown Waterfront | | Change Station

Elev 13 ft 30.69 °N, 88.04 °W | Updated 6 seconds ago

Overcast
Overcast
53.4 °F
Feels Like 53.4 °F
N
0.0
Wind Variable Wind from NW
Gusts 6.0 mph

Today
High -- | Low -- °F
--% Chance of Precip.
Yesterday
High -- | Low -- °F
Precip. -- in
Pressure 30.05 in
Visibility 10.0 miles
Clouds Overcast 1100 ft
Dew Point 50 °F
Humidity 88%
Rainfall 0.00 in
Snow Depth Not available.
6:36 AM 4:50 PM
Waxing Crescent, 51% visible
METAR KBFM 070953Z 29003KT 10SM OVC011 13/11 A3005 RMK AO2 SLP176 T01280106
Pressure 30.05 in
Visibility 10.0 miles
Clouds Overcast 1100 ft
Dew Point 50 °F
Humidity 88%
Rainfall 0.00 in
Snow Depth Not available.
6:36 AM 4:50 PM
Waxing Crescent, 51% visible
METAR KBFM 070953Z 29003KT 10SM OVC011 13/11 A3005 RMK AO2 SLP176 T01280106

10-Day Weather Forecast

Almanac

Astronomy

Dec. 07, 2016 Rise Set
Actual Time
Civil Twilight
Nautical Twilight
Astronomical Twilight
Moon
Length of Visible Light
Length of Day
Tomorrow will be .
, % of the Moon is Illuminated

Today's Extremes

State Highs State Lows

Community

WunderPhotos

Upload Photos

1,956,111 photos uploaded!

WunderBlog® & News

Nearby

Air Quality

  Air Quality AQ Index Pollutant
Not available.

Snow Depth

Station Depth Elevation

Earthquake Activity

City Distance Mag. Time & Date
Minimum magnitude displayed is 2.5.

Coastal Water Temperatures

Place Temperature

Stations

Nearby Weather Stations

Station Location Temp. Windchill Dew Point Humidity Wind Precip. Elev Updated Type
                   

Watches & Warnings

There are currently no watches in effect.